Offutt Air Force Base
KOFF : now visible

Airfield :











YOU CAN JOIN US ON...

 
LOGIN :

Register | Disclaimer

   EN    FR    IT 

 









Legend :    VFR   Marginal VFR   IFR   Intensive IFR   Very Intensive IFR
Visi :
Ceiling :
>= 8 km
>= 3000ft
5 to 8 km
1000 to 3000 ft
1500m to 5 km
500 to 1000 ft
800 to 1500m
200 to 500 ft
< 800m
< 200 ft
Symbols :   Thunderstorms  Fog  Heavy snow  Heavy precipitations  Wind > 20 kt






- Airport Elevation : 1052 ft


KOFF - Offutt Air Force Base

CURRENT METAR :
  • 261056Z AUTO 00000KT 10SM CLR M02/M04 A2992 RMK AO2 SLP146 T10211037 $

EXPIRED METARs :
  • 260956Z AUTO 00000KT 10SM CLR M02/M03 A2993 RMK AO2 SLP150 T10201033 $
  • 260856Z AUTO 15006KT 10SM CLR M01/M02 A2992 RMK AO2 SLP145 T10101024 55008 $

TAF AMD TAF KOFF
Valid from the 25 at 23:00 until the 27 at 00:00 UTC


252330Z 2523/2624 VRB06KT 9999 OVC016 QNH2991INS
BECMG 2600/2601 VRB06KT 9999 SKC QNH2991INS
BECMG 2608/2609 20009KT 9999 SKC QNH2991INS
BECMG 2616/2617 30009KT 9999 SKC QNH2999INS TX08/2618Z TNM02/2606Z LAST NO AMDS AFT 2523 NEXT 2902
KZMP FIR / North America



MET'MAP, your aeronautical weather chart ! - Copyright ORBIFLY December 2007 - Disclaimer

ORBIFLY MET'MAP TEAM :

Programming & Development : Alexandra Zaïnal
Concept & original design : Baudouin d'Aumeries
Assistance for programming : Marc-Olivier Méhu
Technical & hardware support : Manuel Goepfert

Contact : metmap@orbifly.com




SOURCES & CREDITS :

   NOAA       Earth
Advisory